createdAt,value
2022-12-23T00:00:54.186Z,20.10
2022-12-23T00:11:23.148Z,21.00
2022-12-23T00:21:50.741Z,18.40
2022-12-23T00:32:18.447Z,18.30
2022-12-23T00:42:55.091Z,24.80
2022-12-23T00:53:23.336Z,21.10
2022-12-23T01:04:08.111Z,22.20
2022-12-23T01:14:35.724Z,19.80
2022-12-23T01:25:03.673Z,22.70
2022-12-23T01:35:31.327Z,16.90
2022-12-23T01:45:58.986Z,12.90
2022-12-23T01:56:31.066Z,18.60
2022-12-23T02:07:15.726Z,15.50
2022-12-23T02:17:54.203Z,13.50
2022-12-23T02:28:51.413Z,13.90
2022-12-23T02:39:26.939Z,16.50
2022-12-23T02:49:58.849Z,15.60
2022-12-23T03:00:26.434Z,12.30
2022-12-23T03:11:09.274Z,15.30
2022-12-23T03:21:44.479Z,10.60
2022-12-23T03:32:15.931Z,12.50
2022-12-23T03:42:46.717Z,11.20
2022-12-23T03:53:18.671Z,12.00
2022-12-23T04:03:56.216Z,11.80
2022-12-23T04:14:24.642Z,8.40
2022-12-23T04:24:52.143Z,8.60
2022-12-23T04:35:19.813Z,10.20
2022-12-23T04:45:52.995Z,6.20
2022-12-23T04:56:20.632Z,9.10
2022-12-23T05:06:48.133Z,8.10
2022-12-23T05:17:15.889Z,9.30
2022-12-23T05:27:43.483Z,10.50
2022-12-23T05:38:11.126Z,9.90
2022-12-23T05:48:38.736Z,12.70
2022-12-23T05:59:06.310Z,16.80
2022-12-23T06:09:33.953Z,16.90
2022-12-23T06:20:01.538Z,9.40
2022-12-23T06:30:29.150Z,12.30
2022-12-23T06:40:56.743Z,12.80
2022-12-23T06:51:24.308Z,12.60
2022-12-23T07:01:51.864Z,13.00
2022-12-23T07:12:19.632Z,16.50
2022-12-23T07:22:47.183Z,18.70
2022-12-23T07:33:14.834Z,24.60
2022-12-23T07:43:42.390Z,19.10
2022-12-23T07:54:12.810Z,18.40
2022-12-23T08:04:45.633Z,17.90
2022-12-23T08:15:14.348Z,20.10
2022-12-23T08:25:42.216Z,20.50
2022-12-23T08:36:11.794Z,15.60
2022-12-23T08:46:40.112Z,12.20
2022-12-23T08:57:07.868Z,11.50
2022-12-23T09:07:35.378Z,12.50
2022-12-23T09:18:03.103Z,9.80
2022-12-23T09:28:31.310Z,15.60
2022-12-23T09:38:59.775Z,15.00
2022-12-23T09:49:28.469Z,17.30
2022-12-23T10:10:36.553Z,9.40
2022-12-23T10:21:08.855Z,9.10
2022-12-23T10:31:47.745Z,12.40
2022-12-23T10:42:25.714Z,12.80
2022-12-23T10:52:58.020Z,12.90
2022-12-23T11:03:30.686Z,7.20
2022-12-23T11:13:58.684Z,11.10
2022-12-23T11:24:28.276Z,11.90
2022-12-23T11:34:57.382Z,12.30
2022-12-23T11:45:28.117Z,13.70
2022-12-23T11:56:04.369Z,19.00
2022-12-23T12:06:32.735Z,17.40
2022-12-23T12:17:07.187Z,17.50
2022-12-23T12:27:40.302Z,22.60
2022-12-23T12:38:17.245Z,20.60
2022-12-23T12:48:51.803Z,22.90
2022-12-23T12:59:24.259Z,25.80
2022-12-23T13:10:01.992Z,19.30
2022-12-23T13:20:35.014Z,20.40
2022-12-23T13:31:07.763Z,17.00
2022-12-23T13:41:40.106Z,12.10
2022-12-23T13:52:13.160Z,11.90
2022-12-23T14:02:53.022Z,12.70
2022-12-23T14:13:24.073Z,13.10
2022-12-23T14:24:04.942Z,15.70
2022-12-23T14:34:36.310Z,13.70
2022-12-23T14:45:34.962Z,12.70
2022-12-23T14:56:24.679Z,16.10
2022-12-23T15:06:55.983Z,13.80
2022-12-23T15:17:29.417Z,13.20
2022-12-23T15:28:01.894Z,14.10
2022-12-23T15:38:33.448Z,16.60
2022-12-23T15:49:01.366Z,25.50
2022-12-23T15:59:33.642Z,26.90
2022-12-23T16:10:05.605Z,25.90
2022-12-23T16:20:41.188Z,25.00
2022-12-23T16:31:11.523Z,20.80
2022-12-23T16:41:39.160Z,21.80
2022-12-23T16:52:09.381Z,19.10
2022-12-23T17:02:37.181Z,17.70
2022-12-23T17:13:04.983Z,22.40
2022-12-23T17:23:33.961Z,21.40
2022-12-23T17:34:01.879Z,17.30
2022-12-23T17:44:29.457Z,18.10
2022-12-23T17:54:57.307Z,22.30
2022-12-23T18:05:27.600Z,20.90
2022-12-23T18:15:55.079Z,21.80
2022-12-23T18:26:22.816Z,19.60
2022-12-23T18:36:51.919Z,16.40
2022-12-23T18:47:19.792Z,17.40
2022-12-23T18:57:47.304Z,1.70
2022-12-23T19:08:18.930Z,21.80
2022-12-23T19:18:50.467Z,15.50
2022-12-23T19:29:18.260Z,19.00
2022-12-23T19:39:45.988Z,17.10
2022-12-23T19:50:14.540Z,16.90
2022-12-23T20:00:42.338Z,16.50
2022-12-23T20:11:12.468Z,13.10
2022-12-23T20:21:40.441Z,18.30
2022-12-23T20:32:08.558Z,26.20
2022-12-23T20:42:36.642Z,25.20
2022-12-23T20:53:04.312Z,15.40
2022-12-23T21:03:31.977Z,18.60
2022-12-23T21:14:06.362Z,19.50
2022-12-23T21:24:34.861Z,17.90
2022-12-23T21:35:03.032Z,22.60
2022-12-23T21:45:30.647Z,23.40
2022-12-23T21:56:03.351Z,22.60
2022-12-23T22:06:32.853Z,26.10
2022-12-23T22:17:00.465Z,20.80
2022-12-23T22:27:28.130Z,19.90
2022-12-23T22:37:55.720Z,19.40
2022-12-23T22:48:23.339Z,18.00
2022-12-23T22:58:52.130Z,20.70
2022-12-23T23:19:46.535Z,13.40
2022-12-23T23:30:14.954Z,15.10
2022-12-23T23:40:42.503Z,18.00
2022-12-23T23:51:10.160Z,24.20
